sensor_id;sensor_type;location;lat;lon;timestamp;P1;durP1;ratioP1;P2;durP2;ratioP2
8632;SDS011;4354;49.832;10.746;2023-05-09T00:02:06;7.40;;;6.73;;
8632;SDS011;4354;49.832;10.746;2023-05-09T00:04:33;7.27;;;6.47;;
8632;SDS011;4354;49.832;10.746;2023-05-09T00:07:00;7.53;;;6.83;;
8632;SDS011;4354;49.832;10.746;2023-05-09T00:09:27;7.43;;;6.73;;
8632;SDS011;4354;49.832;10.746;2023-05-09T00:11:54;6.97;;;6.37;;
8632;SDS011;4354;49.832;10.746;2023-05-09T00:14:21;7.20;;;6.50;;
8632;SDS011;4354;49.832;10.746;2023-05-09T00:16:50;6.83;;;6.07;;
8632;SDS011;4354;49.832;10.746;2023-05-09T00:19:17;7.23;;;6.53;;
8632;SDS011;4354;49.832;10.746;2023-05-09T00:21:44;6.63;;;6.03;;
8632;SDS011;4354;49.832;10.746;2023-05-09T00:24:11;7.37;;;6.63;;
8632;SDS011;4354;49.832;10.746;2023-05-09T00:26:38;7.50;;;6.80;;
8632;SDS011;4354;49.832;10.746;2023-05-09T00:29:05;8.03;;;7.30;;
8632;SDS011;4354;49.832;10.746;2023-05-09T00:31:32;8.20;;;7.50;;
8632;SDS011;4354;49.832;10.746;2023-05-09T00:33:59;7.67;;;6.80;;
8632;SDS011;4354;49.832;10.746;2023-05-09T00:36:25;7.47;;;6.77;;
8632;SDS011;4354;49.832;10.746;2023-05-09T00:38:52;8.07;;;7.27;;
8632;SDS011;4354;49.832;10.746;2023-05-09T00:41:19;8.17;;;7.37;;
8632;SDS011;4354;49.832;10.746;2023-05-09T00:43:46;7.83;;;6.80;;
8632;SDS011;4354;49.832;10.746;2023-05-09T00:46:13;7.53;;;6.93;;
8632;SDS011;4354;49.832;10.746;2023-05-09T00:48:40;7.73;;;7.03;;
8632;SDS011;4354;49.832;10.746;2023-05-09T00:51:07;7.67;;;6.97;;
8632;SDS011;4354;49.832;10.746;2023-05-09T00:53:33;8.00;;;7.30;;
8632;SDS011;4354;49.832;10.746;2023-05-09T00:56:00;9.00;;;8.10;;
8632;SDS011;4354;49.832;10.746;2023-05-09T00:58:27;9.43;;;7.23;;
8632;SDS011;4354;49.832;10.746;2023-05-09T01:00:55;8.20;;;7.47;;
8632;SDS011;4354;49.832;10.746;2023-05-09T01:03:21;9.07;;;8.17;;
8632;SDS011;4354;49.832;10.746;2023-05-09T01:05:56;8.87;;;7.93;;
8632;SDS011;4354;49.832;10.746;2023-05-09T01:11:21;7.87;;;7.17;;
8632;SDS011;4354;49.832;10.746;2023-05-09T01:16:54;8.03;;;7.33;;
8632;SDS011;4354;49.832;10.746;2023-05-09T01:21:57;8.00;;;7.20;;
8632;SDS011;4354;49.832;10.746;2023-05-09T01:29:58;9.23;;;6.83;;
8632;SDS011;4354;49.832;10.746;2023-05-09T01:32:29;8.77;;;7.97;;
8632;SDS011;4354;49.832;10.746;2023-05-09T01:35:00;8.80;;;7.87;;
8632;SDS011;4354;49.832;10.746;2023-05-09T01:37:30;9.00;;;7.60;;
8632;SDS011;4354;49.832;10.746;2023-05-09T01:39:59;7.77;;;7.07;;
8632;SDS011;4354;49.832;10.746;2023-05-09T01:42:40;8.17;;;7.40;;
8632;SDS011;4354;49.832;10.746;2023-05-09T01:45:10;7.63;;;6.80;;
8632;SDS011;4354;49.832;10.746;2023-05-09T01:47:39;8.53;;;6.77;;
8632;SDS011;4354;49.832;10.746;2023-05-09T01:50:08;7.13;;;6.53;;
8632;SDS011;4354;49.832;10.746;2023-05-09T01:52:37;7.00;;;6.40;;
8632;SDS011;4354;49.832;10.746;2023-05-09T01:55:06;7.13;;;6.53;;
8632;SDS011;4354;49.832;10.746;2023-05-09T01:57:34;7.77;;;7.07;;
8632;SDS011;4354;49.832;10.746;2023-05-09T02:00:02;7.90;;;7.20;;
8632;SDS011;4354;49.832;10.746;2023-05-09T02:02:33;7.30;;;6.53;;
8632;SDS011;4354;49.832;10.746;2023-05-09T02:05:01;7.50;;;6.80;;
8632;SDS011;4354;49.832;10.746;2023-05-09T02:07:28;7.50;;;6.70;;
8632;SDS011;4354;49.832;10.746;2023-05-09T02:09:56;7.00;;;6.40;;
8632;SDS011;4354;49.832;10.746;2023-05-09T02:12:24;7.83;;;7.13;;
8632;SDS011;4354;49.832;10.746;2023-05-09T02:14:51;8.53;;;7.10;;
8632;SDS011;4354;49.832;10.746;2023-05-09T02:17:18;6.90;;;6.30;;
8632;SDS011;4354;49.832;10.746;2023-05-09T02:19:45;6.70;;;6.20;;
8632;SDS011;4354;49.832;10.746;2023-05-09T02:22:11;7.40;;;6.70;;
8632;SDS011;4354;49.832;10.746;2023-05-09T02:24:41;8.30;;;7.50;;
8632;SDS011;4354;49.832;10.746;2023-05-09T02:27:09;7.30;;;6.50;;
8632;SDS011;4354;49.832;10.746;2023-05-09T02:29:39;7.47;;;6.77;;
8632;SDS011;4354;49.832;10.746;2023-05-09T02:32:30;7.30;;;6.60;;
8632;SDS011;4354;49.832;10.746;2023-05-09T02:34:57;7.77;;;6.97;;
8632;SDS011;4354;49.832;10.746;2023-05-09T02:37:26;7.23;;;6.53;;
8632;SDS011;4354;49.832;10.746;2023-05-09T02:39:53;8.07;;;6.93;;
8632;SDS011;4354;49.832;10.746;2023-05-09T02:42:21;7.50;;;6.77;;
8632;SDS011;4354;49.832;10.746;2023-05-09T02:44:54;7.63;;;7.03;;
8632;SDS011;4354;49.832;10.746;2023-05-09T02:47:21;7.30;;;6.60;;
8632;SDS011;4354;49.832;10.746;2023-05-09T02:49:48;8.47;;;7.20;;
8632;SDS011;4354;49.832;10.746;2023-05-09T02:52:15;7.83;;;7.13;;
8632;SDS011;4354;49.832;10.746;2023-05-09T02:54:42;8.00;;;7.20;;
8632;SDS011;4354;49.832;10.746;2023-05-09T02:57:08;8.00;;;7.30;;
8632;SDS011;4354;49.832;10.746;2023-05-09T02:59:36;7.97;;;7.17;;
8632;SDS011;4354;49.832;10.746;2023-05-09T03:02:02;8.00;;;7.30;;
8632;SDS011;4354;49.832;10.746;2023-05-09T03:04:30;7.13;;;6.50;;
8632;SDS011;4354;49.832;10.746;2023-05-09T03:06:56;9.37;;;7.80;;
8632;SDS011;4354;49.832;10.746;2023-05-09T03:09:23;9.70;;;8.33;;
8632;SDS011;4354;49.832;10.746;2023-05-09T03:11:50;8.80;;;8.00;;
8632;SDS011;4354;49.832;10.746;2023-05-09T03:14:17;8.77;;;7.97;;
8632;SDS011;4354;49.832;10.746;2023-05-09T03:16:43;8.33;;;7.63;;
8632;SDS011;4354;49.832;10.746;2023-05-09T03:19:10;8.57;;;7.77;;
8632;SDS011;4354;49.832;10.746;2023-05-09T03:21:37;8.37;;;7.67;;
8632;SDS011;4354;49.832;10.746;2023-05-09T03:24:05;10.87;;;8.40;;
8632;SDS011;4354;49.832;10.746;2023-05-09T03:26:32;9.13;;;7.67;;
8632;SDS011;4354;49.832;10.746;2023-05-09T03:29:02;9.00;;;8.17;;
8632;SDS011;4354;49.832;10.746;2023-05-09T03:31:29;9.57;;;8.03;;
8632;SDS011;4354;49.832;10.746;2023-05-09T03:33:57;8.20;;;7.43;;
8632;SDS011;4354;49.832;10.746;2023-05-09T03:36:23;8.93;;;7.53;;
8632;SDS011;4354;49.832;10.746;2023-05-09T03:38:50;8.30;;;7.60;;
8632;SDS011;4354;49.832;10.746;2023-05-09T03:41:17;8.57;;;7.40;;
8632;SDS011;4354;49.832;10.746;2023-05-09T03:43:44;10.03;;;7.63;;
8632;SDS011;4354;49.832;10.746;2023-05-09T03:46:11;9.20;;;7.50;;
8632;SDS011;4354;49.832;10.746;2023-05-09T03:48:38;8.23;;;7.30;;
8632;SDS011;4354;49.832;10.746;2023-05-09T03:51:04;7.97;;;7.27;;
8632;SDS011;4354;49.832;10.746;2023-05-09T03:53:31;7.90;;;7.20;;
8632;SDS011;4354;49.832;10.746;2023-05-09T03:55:58;9.30;;;7.70;;
8632;SDS011;4354;49.832;10.746;2023-05-09T03:58:25;9.20;;;7.53;;
8632;SDS011;4354;49.832;10.746;2023-05-09T04:00:52;7.93;;;7.13;;
8632;SDS011;4354;49.832;10.746;2023-05-09T04:03:19;7.50;;;6.80;;
8632;SDS011;4354;49.832;10.746;2023-05-09T04:05:46;8.60;;;7.77;;
8632;SDS011;4354;49.832;10.746;2023-05-09T04:08:13;9.73;;;7.97;;
8632;SDS011;4354;49.832;10.746;2023-05-09T04:10:39;8.47;;;7.60;;
8632;SDS011;4354;49.832;10.746;2023-05-09T04:13:06;8.83;;;8.03;;
8632;SDS011;4354;49.832;10.746;2023-05-09T04:15:33;10.10;;;8.27;;
8632;SDS011;4354;49.832;10.746;2023-05-09T04:18:00;8.43;;;7.50;;
8632;SDS011;4354;49.832;10.746;2023-05-09T04:20:27;8.60;;;7.80;;
8632;SDS011;4354;49.832;10.746;2023-05-09T04:22:54;8.40;;;7.70;;
8632;SDS011;4354;49.832;10.746;2023-05-09T04:25:20;8.30;;;7.50;;
8632;SDS011;4354;49.832;10.746;2023-05-09T04:27:47;8.73;;;7.83;;
8632;SDS011;4354;49.832;10.746;2023-05-09T04:30:14;8.10;;;7.37;;
8632;SDS011;4354;49.832;10.746;2023-05-09T04:32:41;8.37;;;7.57;;
8632;SDS011;4354;49.832;10.746;2023-05-09T04:35:11;8.73;;;8.00;;
8632;SDS011;4354;49.832;10.746;2023-05-09T04:37:39;8.83;;;7.97;;
8632;SDS011;4354;49.832;10.746;2023-05-09T04:40:08;8.97;;;8.07;;
8632;SDS011;4354;49.832;10.746;2023-05-09T04:42:35;11.07;;;8.73;;
8632;SDS011;4354;49.832;10.746;2023-05-09T04:45:02;9.23;;;8.40;;
8632;SDS011;4354;49.832;10.746;2023-05-09T04:47:30;9.03;;;8.20;;
8632;SDS011;4354;49.832;10.746;2023-05-09T04:49:57;9.37;;;8.47;;
8632;SDS011;4354;49.832;10.746;2023-05-09T04:52:24;9.27;;;8.37;;
8632;SDS011;4354;49.832;10.746;2023-05-09T04:54:51;13.73;;;8.47;;
8632;SDS011;4354;49.832;10.746;2023-05-09T04:57:18;9.77;;;8.87;;
8632;SDS011;4354;49.832;10.746;2023-05-09T04:59:45;8.43;;;7.67;;
8632;SDS011;4354;49.832;10.746;2023-05-09T05:02:12;8.67;;;7.47;;
8632;SDS011;4354;49.832;10.746;2023-05-09T05:04:39;10.63;;;8.20;;
8632;SDS011;4354;49.832;10.746;2023-05-09T05:07:06;11.50;;;8.17;;
8632;SDS011;4354;49.832;10.746;2023-05-09T05:09:33;10.37;;;7.70;;
8632;SDS011;4354;49.832;10.746;2023-05-09T05:11:59;9.07;;;8.27;;
8632;SDS011;4354;49.832;10.746;2023-05-09T05:14:30;8.27;;;7.57;;
8632;SDS011;4354;49.832;10.746;2023-05-09T05:16:56;8.87;;;8.17;;
8632;SDS011;4354;49.832;10.746;2023-05-09T05:19:23;8.07;;;7.27;;
8632;SDS011;4354;49.832;10.746;2023-05-09T05:21:50;10.07;;;7.73;;
8632;SDS011;4354;49.832;10.746;2023-05-09T05:24:17;7.90;;;7.20;;
8632;SDS011;4354;49.832;10.746;2023-05-09T05:26:43;8.43;;;7.13;;
8632;SDS011;4354;49.832;10.746;2023-05-09T05:29:10;9.97;;;7.53;;
8632;SDS011;4354;49.832;10.746;2023-05-09T05:31:37;9.60;;;7.30;;
8632;SDS011;4354;49.832;10.746;2023-05-09T05:34:04;8.33;;;7.53;;
8632;SDS011;4354;49.832;10.746;2023-05-09T05:36:31;8.43;;;7.50;;
8632;SDS011;4354;49.832;10.746;2023-05-09T05:38:58;8.23;;;7.53;;
8632;SDS011;4354;49.832;10.746;2023-05-09T05:41:25;7.90;;;7.20;;
8632;SDS011;4354;49.832;10.746;2023-05-09T05:43:52;9.40;;;7.97;;
8632;SDS011;4354;49.832;10.746;2023-05-09T05:46:19;8.17;;;7.47;;
8632;SDS011;4354;49.832;10.746;2023-05-09T05:48:46;8.50;;;7.53;;
8632;SDS011;4354;49.832;10.746;2023-05-09T05:51:13;8.73;;;7.93;;
8632;SDS011;4354;49.832;10.746;2023-05-09T05:53:41;7.83;;;7.20;;
8632;SDS011;4354;49.832;10.746;2023-05-09T05:56:07;9.67;;;8.67;;
8632;SDS011;4354;49.832;10.746;2023-05-09T05:58:34;8.17;;;7.50;;
8632;SDS011;4354;49.832;10.746;2023-05-09T06:01:01;8.13;;;7.43;;
8632;SDS011;4354;49.832;10.746;2023-05-09T06:03:28;9.63;;;7.90;;
8632;SDS011;4354;49.832;10.746;2023-05-09T06:05:55;9.00;;;8.07;;
8632;SDS011;4354;49.832;10.746;2023-05-09T06:08:22;8.45;;;7.68;;
8632;SDS011;4354;49.832;10.746;2023-05-09T06:10:48;9.20;;;7.47;;
8632;SDS011;4354;49.832;10.746;2023-05-09T06:13:15;8.60;;;7.80;;
8632;SDS011;4354;49.832;10.746;2023-05-09T06:15:42;8.40;;;7.70;;
8632;SDS011;4354;49.832;10.746;2023-05-09T06:18:09;8.93;;;7.97;;
8632;SDS011;4354;49.832;10.746;2023-05-09T06:20:36;9.20;;;8.40;;
8632;SDS011;4354;49.832;10.746;2023-05-09T06:23:03;14.32;;;8.30;;
8632;SDS011;4354;49.832;10.746;2023-05-09T06:25:29;8.77;;;8.00;;
8632;SDS011;4354;49.832;10.746;2023-05-09T06:27:56;9.63;;;8.07;;
8632;SDS011;4354;49.832;10.746;2023-05-09T06:30:23;9.13;;;7.90;;
8632;SDS011;4354;49.832;10.746;2023-05-09T06:32:52;8.13;;;7.43;;
8632;SDS011;4354;49.832;10.746;2023-05-09T06:35:20;8.07;;;7.28;;
8632;SDS011;4354;49.832;10.746;2023-05-09T06:37:47;8.50;;;7.13;;
8632;SDS011;4354;49.832;10.746;2023-05-09T06:40:14;8.05;;;7.35;;
8632;SDS011;4354;49.832;10.746;2023-05-09T06:42:42;7.50;;;6.90;;
8632;SDS011;4354;49.832;10.746;2023-05-09T06:45:09;8.15;;;7.45;;
8632;SDS011;4354;49.832;10.746;2023-05-09T06:47:36;8.63;;;7.78;;
8632;SDS011;4354;49.832;10.746;2023-05-09T06:50:03;8.63;;;7.15;;
8632;SDS011;4354;49.832;10.746;2023-05-09T06:52:31;8.88;;;7.72;;
8632;SDS011;4354;49.832;10.746;2023-05-09T06:54:57;8.18;;;7.47;;
8632;SDS011;4354;49.832;10.746;2023-05-09T06:57:24;7.88;;;7.07;;
8632;SDS011;4354;49.832;10.746;2023-05-09T06:59:51;10.38;;;7.60;;
8632;SDS011;4354;49.832;10.746;2023-05-09T07:02:18;8.93;;;8.02;;
8632;SDS011;4354;49.832;10.746;2023-05-09T07:04:44;7.97;;;7.18;;
8632;SDS011;4354;49.832;10.746;2023-05-09T07:07:11;9.15;;;7.10;;
8632;SDS011;4354;49.832;10.746;2023-05-09T07:09:38;8.60;;;7.47;;
8632;SDS011;4354;49.832;10.746;2023-05-09T07:12:05;7.78;;;7.07;;
8632;SDS011;4354;49.832;10.746;2023-05-09T07:14:31;7.68;;;6.88;;
8632;SDS011;4354;49.832;10.746;2023-05-09T07:16:58;7.57;;;6.47;;
8632;SDS011;4354;49.832;10.746;2023-05-09T07:19:43;7.63;;;6.93;;
8632;SDS011;4354;49.832;10.746;2023-05-09T07:22:10;7.15;;;6.40;;
8632;SDS011;4354;49.832;10.746;2023-05-09T07:24:40;6.68;;;6.07;;
8632;SDS011;4354;49.832;10.746;2023-05-09T07:27:06;6.78;;;6.05;;
8632;SDS011;4354;49.832;10.746;2023-05-09T07:29:33;6.95;;;6.18;;
8632;SDS011;4354;49.832;10.746;2023-05-09T07:32:00;6.38;;;5.88;;
8632;SDS011;4354;49.832;10.746;2023-05-09T07:34:27;7.05;;;6.13;;
8632;SDS011;4354;49.832;10.746;2023-05-09T07:36:54;5.93;;;5.43;;
8632;SDS011;4354;49.832;10.746;2023-05-09T07:39:21;6.38;;;5.60;;
8632;SDS011;4354;49.832;10.746;2023-05-09T07:41:47;8.77;;;6.38;;
8632;SDS011;4354;49.832;10.746;2023-05-09T07:44:14;5.95;;;5.43;;
8632;SDS011;4354;49.832;10.746;2023-05-09T07:46:41;5.57;;;5.07;;
8632;SDS011;4354;49.832;10.746;2023-05-09T07:49:08;5.90;;;5.40;;
8632;SDS011;4354;49.832;10.746;2023-05-09T07:51:35;6.13;;;5.53;;
8632;SDS011;4354;49.832;10.746;2023-05-09T07:54:01;5.82;;;5.32;;
8632;SDS011;4354;49.832;10.746;2023-05-09T07:56:28;6.57;;;5.38;;
8632;SDS011;4354;49.832;10.746;2023-05-09T07:58:58;5.78;;;5.28;;
8632;SDS011;4354;49.832;10.746;2023-05-09T08:01:25;5.35;;;4.95;;
8632;SDS011;4354;49.832;10.746;2023-05-09T08:03:51;5.80;;;5.30;;
8632;SDS011;4354;49.832;10.746;2023-05-09T08:06:18;7.72;;;5.68;;
8632;SDS011;4354;49.832;10.746;2023-05-09T08:08:46;5.95;;;5.55;;
8632;SDS011;4354;49.832;10.746;2023-05-09T08:11:13;6.60;;;5.80;;
8632;SDS011;4354;49.832;10.746;2023-05-09T08:13:40;6.25;;;5.20;;
8632;SDS011;4354;49.832;10.746;2023-05-09T08:16:07;6.40;;;5.80;;
8632;SDS011;4354;49.832;10.746;2023-05-09T08:18:35;5.43;;;4.82;;
8632;SDS011;4354;49.832;10.746;2023-05-09T08:21:02;6.07;;;5.47;;
8632;SDS011;4354;49.832;10.746;2023-05-09T08:23:29;6.63;;;5.97;;
8632;SDS011;4354;49.832;10.746;2023-05-09T08:25:56;6.50;;;5.00;;
8632;SDS011;4354;49.832;10.746;2023-05-09T08:28:24;5.70;;;5.20;;
8632;SDS011;4354;49.832;10.746;2023-05-09T08:30:53;8.02;;;5.43;;
8632;SDS011;4354;49.832;10.746;2023-05-09T08:33:22;5.50;;;5.00;;
8632;SDS011;4354;49.832;10.746;2023-05-09T08:35:49;5.30;;;4.80;;
8632;SDS011;4354;49.832;10.746;2023-05-09T08:38:17;5.00;;;4.60;;
8632;SDS011;4354;49.832;10.746;2023-05-09T08:40:44;6.63;;;5.13;;
8632;SDS011;4354;49.832;10.746;2023-05-09T08:43:11;6.30;;;4.88;;
8632;SDS011;4354;49.832;10.746;2023-05-09T08:45:42;5.88;;;5.38;;
8632;SDS011;4354;49.832;10.746;2023-05-09T08:48:14;6.85;;;5.25;;
8632;SDS011;4354;49.832;10.746;2023-05-09T08:50:42;5.45;;;5.05;;
8632;SDS011;4354;49.832;10.746;2023-05-09T08:53:10;5.00;;;4.60;;
8632;SDS011;4354;49.832;10.746;2023-05-09T08:55:37;5.13;;;4.28;;
8632;SDS011;4354;49.832;10.746;2023-05-09T08:58:05;7.25;;;4.10;;
8632;SDS011;4354;49.832;10.746;2023-05-09T09:00:32;4.70;;;4.30;;
8632;SDS011;4354;49.832;10.746;2023-05-09T09:03:01;4.75;;;4.15;;
8632;SDS011;4354;49.832;10.746;2023-05-09T09:05:29;4.90;;;4.50;;
8632;SDS011;4354;49.832;10.746;2023-05-09T09:08:07;4.65;;;4.28;;
8632;SDS011;4354;49.832;10.746;2023-05-09T09:10:38;5.28;;;4.80;;
8632;SDS011;4354;49.832;10.746;2023-05-09T09:13:13;4.93;;;4.20;;
8632;SDS011;4354;49.832;10.746;2023-05-09T09:15:41;5.78;;;3.85;;
8632;SDS011;4354;49.832;10.746;2023-05-09T09:18:11;4.80;;;3.95;;
8632;SDS011;4354;49.832;10.746;2023-05-09T09:20:44;4.90;;;4.50;;
8632;SDS011;4354;49.832;10.746;2023-05-09T09:23:18;6.00;;;4.25;;
8632;SDS011;4354;49.832;10.746;2023-05-09T09:25:53;4.68;;;4.28;;
8632;SDS011;4354;49.832;10.746;2023-05-09T09:28:25;6.78;;;4.20;;
8632;SDS011;4354;49.832;10.746;2023-05-09T09:30:52;3.95;;;3.65;;
8632;SDS011;4354;49.832;10.746;2023-05-09T09:33:19;5.18;;;4.10;;
8632;SDS011;4354;49.832;10.746;2023-05-09T09:35:47;4.55;;;3.97;;
8632;SDS011;4354;49.832;10.746;2023-05-09T09:38:19;4.93;;;4.50;;
8632;SDS011;4354;49.832;10.746;2023-05-09T09:40:56;5.28;;;4.00;;
8632;SDS011;4354;49.832;10.746;2023-05-09T09:43:26;4.30;;;3.80;;
8632;SDS011;4354;49.832;10.746;2023-05-09T09:45:54;3.67;;;3.35;;
8632;SDS011;4354;49.832;10.746;2023-05-09T09:48:23;4.07;;;3.75;;
8632;SDS011;4354;49.832;10.746;2023-05-09T09:50:52;3.85;;;3.33;;
8632;SDS011;4354;49.832;10.746;2023-05-09T09:53:21;4.57;;;2.97;;
8632;SDS011;4354;49.832;10.746;2023-05-09T09:55:49;3.88;;;3.58;;
8632;SDS011;4354;49.832;10.746;2023-05-09T09:58:17;3.42;;;3.20;;
8632;SDS011;4354;49.832;10.746;2023-05-09T10:00:47;5.22;;;3.70;;
8632;SDS011;4354;49.832;10.746;2023-05-09T10:03:36;3.78;;;3.47;;
8632;SDS011;4354;49.832;10.746;2023-05-09T10:06:04;5.15;;;4.10;;
8632;SDS011;4354;49.832;10.746;2023-05-09T10:08:31;4.30;;;3.53;;
8632;SDS011;4354;49.832;10.746;2023-05-09T10:10:58;3.70;;;3.38;;
8632;SDS011;4354;49.832;10.746;2023-05-09T10:13:25;3.60;;;3.40;;
8632;SDS011;4354;49.832;10.746;2023-05-09T10:15:54;5.82;;;3.78;;
8632;SDS011;4354;49.832;10.746;2023-05-09T10:18:24;3.28;;;3.03;;
8632;SDS011;4354;49.832;10.746;2023-05-09T10:20:53;4.40;;;3.70;;
8632;SDS011;4354;49.832;10.746;2023-05-09T10:23:20;5.60;;;3.60;;
8632;SDS011;4354;49.832;10.746;2023-05-09T10:26:35;3.50;;;3.20;;
8632;SDS011;4354;49.832;10.746;2023-05-09T10:28:36;5.68;;;2.97;;
8632;SDS011;4354;49.832;10.746;2023-05-09T10:33:42;4.13;;;3.20;;
8632;SDS011;4354;49.832;10.746;2023-05-09T10:36:12;3.42;;;3.13;;
8632;SDS011;4354;49.832;10.746;2023-05-09T10:38:42;4.85;;;3.08;;
8632;SDS011;4354;49.832;10.746;2023-05-09T10:41:09;6.72;;;3.20;;
8632;SDS011;4354;49.832;10.746;2023-05-09T10:43:37;3.08;;;2.83;;
8632;SDS011;4354;49.832;10.746;2023-05-09T10:46:04;4.47;;;2.95;;
8632;SDS011;4354;49.832;10.746;2023-05-09T10:48:32;4.63;;;3.30;;
8632;SDS011;4354;49.832;10.746;2023-05-09T10:51:00;3.28;;;3.05;;
8632;SDS011;4354;49.832;10.746;2023-05-09T10:53:40;4.68;;;3.10;;
8632;SDS011;4354;49.832;10.746;2023-05-09T10:56:09;4.47;;;2.85;;
8632;SDS011;4354;49.832;10.746;2023-05-09T10:58:47;3.33;;;2.90;;
8632;SDS011;4354;49.832;10.746;2023-05-09T11:01:15;4.43;;;3.03;;
8632;SDS011;4354;49.832;10.746;2023-05-09T11:03:54;3.70;;;3.40;;
8632;SDS011;4354;49.832;10.746;2023-05-09T11:14:32;4.88;;;2.60;;
8632;SDS011;4354;49.832;10.746;2023-05-09T11:17:00;3.72;;;2.70;;
8632;SDS011;4354;49.832;10.746;2023-05-09T11:19:36;5.18;;;2.90;;
8632;SDS011;4354;49.832;10.746;2023-05-09T11:22:10;3.83;;;2.50;;
8632;SDS011;4354;49.832;10.746;2023-05-09T11:24:37;3.47;;;2.80;;
8632;SDS011;4354;49.832;10.746;2023-05-09T11:27:12;3.55;;;2.63;;
8632;SDS011;4354;49.832;10.746;2023-05-09T11:29:58;3.40;;;3.10;;
8632;SDS011;4354;49.832;10.746;2023-05-09T11:32:31;3.30;;;2.85;;
8632;SDS011;4354;49.832;10.746;2023-05-09T11:37:32;5.35;;;2.65;;
8632;SDS011;4354;49.832;10.746;2023-05-09T11:40:00;4.13;;;2.70;;
8632;SDS011;4354;49.832;10.746;2023-05-09T11:42:30;2.63;;;2.42;;
8632;SDS011;4354;49.832;10.746;2023-05-09T11:44:57;3.53;;;2.80;;
8632;SDS011;4354;49.832;10.746;2023-05-09T11:47:24;4.18;;;2.67;;
8632;SDS011;4354;49.832;10.746;2023-05-09T11:49:54;3.95;;;2.83;;
8632;SDS011;4354;49.832;10.746;2023-05-09T11:52:21;3.92;;;2.85;;
8632;SDS011;4354;49.832;10.746;2023-05-09T11:54:47;3.15;;;2.85;;
8632;SDS011;4354;49.832;10.746;2023-05-09T11:57:15;5.80;;;3.22;;
8632;SDS011;4354;49.832;10.746;2023-05-09T11:59:43;2.65;;;2.45;;
8632;SDS011;4354;49.832;10.746;2023-05-09T12:02:10;2.42;;;2.22;;
8632;SDS011;4354;49.832;10.746;2023-05-09T12:04:38;2.90;;;2.30;;
8632;SDS011;4354;49.832;10.746;2023-05-09T12:07:05;5.10;;;2.20;;
8632;SDS011;4354;49.832;10.746;2023-05-09T12:09:32;2.83;;;2.47;;
8632;SDS011;4354;49.832;10.746;2023-05-09T12:12:00;2.65;;;2.45;;
8632;SDS011;4354;49.832;10.746;2023-05-09T12:16:57;2.70;;;2.50;;
8632;SDS011;4354;49.832;10.746;2023-05-09T12:19:24;3.17;;;2.30;;
8632;SDS011;4354;49.832;10.746;2023-05-09T12:21:58;3.17;;;2.33;;
8632;SDS011;4354;49.832;10.746;2023-05-09T12:24:27;2.40;;;2.00;;
8632;SDS011;4354;49.832;10.746;2023-05-09T12:26:55;3.47;;;2.60;;
8632;SDS011;4354;49.832;10.746;2023-05-09T12:29:22;2.03;;;1.88;;
8632;SDS011;4354;49.832;10.746;2023-05-09T12:31:53;3.05;;;2.15;;
8632;SDS011;4354;49.832;10.746;2023-05-09T12:34:21;3.28;;;2.42;;
8632;SDS011;4354;49.832;10.746;2023-05-09T12:36:48;4.57;;;2.60;;
8632;SDS011;4354;49.832;10.746;2023-05-09T12:39:19;2.40;;;1.98;;
8632;SDS011;4354;49.832;10.746;2023-05-09T12:41:48;2.05;;;1.85;;
8632;SDS011;4354;49.832;10.746;2023-05-09T12:44:26;3.65;;;2.38;;
8632;SDS011;4354;49.832;10.746;2023-05-09T12:46:55;3.45;;;2.28;;
8632;SDS011;4354;49.832;10.746;2023-05-09T12:49:23;2.50;;;2.25;;
8632;SDS011;4354;49.832;10.746;2023-05-09T12:51:50;3.25;;;2.10;;
8632;SDS011;4354;49.832;10.746;2023-05-09T12:54:22;3.47;;;2.15;;
8632;SDS011;4354;49.832;10.746;2023-05-09T12:56:50;2.17;;;1.98;;
8632;SDS011;4354;49.832;10.746;2023-05-09T12:59:26;5.25;;;2.45;;
8632;SDS011;4354;49.832;10.746;2023-05-09T13:01:58;2.55;;;2.10;;
8632;SDS011;4354;49.832;10.746;2023-05-09T13:04:26;3.33;;;1.98;;
8632;SDS011;4354;49.832;10.746;2023-05-09T13:06:54;3.83;;;2.45;;
8632;SDS011;4354;49.832;10.746;2023-05-09T13:09:25;2.45;;;2.13;;
8632;SDS011;4354;49.832;10.746;2023-05-09T13:11:53;2.10;;;1.90;;
8632;SDS011;4354;49.832;10.746;2023-05-09T13:14:20;4.07;;;2.10;;
8632;SDS011;4354;49.832;10.746;2023-05-09T13:16:48;3.90;;;2.50;;
8632;SDS011;4354;49.832;10.746;2023-05-09T13:19:15;5.10;;;2.33;;
8632;SDS011;4354;49.832;10.746;2023-05-09T13:21:42;3.22;;;2.05;;
8632;SDS011;4354;49.832;10.746;2023-05-09T13:24:09;4.38;;;2.10;;
8632;SDS011;4354;49.832;10.746;2023-05-09T13:26:36;2.33;;;2.05;;
8632;SDS011;4354;49.832;10.746;2023-05-09T13:29:03;3.65;;;2.00;;
8632;SDS011;4354;49.832;10.746;2023-05-09T13:31:31;4.38;;;1.98;;
8632;SDS011;4354;49.832;10.746;2023-05-09T13:33:58;2.22;;;1.98;;
8632;SDS011;4354;49.832;10.746;2023-05-09T13:36:25;6.68;;;2.25;;
8632;SDS011;4354;49.832;10.746;2023-05-09T13:38:52;4.68;;;2.33;;
8632;SDS011;4354;49.832;10.746;2023-05-09T13:41:19;4.32;;;1.92;;
8632;SDS011;4354;49.832;10.746;2023-05-09T13:43:48;6.47;;;2.58;;
8632;SDS011;4354;49.832;10.746;2023-05-09T13:46:16;3.28;;;2.55;;
8632;SDS011;4354;49.832;10.746;2023-05-09T13:48:43;2.75;;;2.47;;
8632;SDS011;4354;49.832;10.746;2023-05-09T13:51:10;4.45;;;2.15;;
8632;SDS011;4354;49.832;10.746;2023-05-09T13:53:37;2.85;;;2.00;;
8632;SDS011;4354;49.832;10.746;2023-05-09T13:56:07;3.05;;;2.05;;
8632;SDS011;4354;49.832;10.746;2023-05-09T13:58:35;4.90;;;2.00;;
8632;SDS011;4354;49.832;10.746;2023-05-09T14:01:02;6.43;;;2.20;;
8632;SDS011;4354;49.832;10.746;2023-05-09T14:03:29;4.47;;;2.20;;
8632;SDS011;4354;49.832;10.746;2023-05-09T14:05:57;4.38;;;2.30;;
8632;SDS011;4354;49.832;10.746;2023-05-09T14:08:24;4.88;;;2.20;;
8632;SDS011;4354;49.832;10.746;2023-05-09T14:10:52;3.25;;;2.00;;
8632;SDS011;4354;49.832;10.746;2023-05-09T14:13:19;4.45;;;1.90;;
8632;SDS011;4354;49.832;10.746;2023-05-09T14:15:47;3.10;;;2.10;;
8632;SDS011;4354;49.832;10.746;2023-05-09T14:18:14;4.97;;;2.30;;
8632;SDS011;4354;49.832;10.746;2023-05-09T14:20:46;4.43;;;2.15;;
8632;SDS011;4354;49.832;10.746;2023-05-09T14:23:13;4.97;;;2.10;;
8632;SDS011;4354;49.832;10.746;2023-05-09T14:25:40;4.43;;;2.20;;
8632;SDS011;4354;49.832;10.746;2023-05-09T14:28:07;3.53;;;2.20;;
8632;SDS011;4354;49.832;10.746;2023-05-09T14:30:35;3.22;;;2.10;;
8632;SDS011;4354;49.832;10.746;2023-05-09T14:33:02;4.57;;;1.90;;
8632;SDS011;4354;49.832;10.746;2023-05-09T14:35:29;2.55;;;2.00;;
8632;SDS011;4354;49.832;10.746;2023-05-09T14:37:59;4.93;;;1.98;;
8632;SDS011;4354;49.832;10.746;2023-05-09T14:40:26;2.65;;;2.08;;
8632;SDS011;4354;49.832;10.746;2023-05-09T14:42:57;2.70;;;2.00;;
8632;SDS011;4354;49.832;10.746;2023-05-09T14:45:27;4.32;;;1.85;;
8632;SDS011;4354;49.832;10.746;2023-05-09T14:47:55;4.20;;;1.95;;
8632;SDS011;4354;49.832;10.746;2023-05-09T14:50:22;2.75;;;2.22;;
8632;SDS011;4354;49.832;10.746;2023-05-09T14:52:49;4.68;;;1.80;;
8632;SDS011;4354;49.832;10.746;2023-05-09T14:55:19;2.75;;;1.98;;
8632;SDS011;4354;49.832;10.746;2023-05-09T14:57:48;5.03;;;1.85;;
8632;SDS011;4354;49.832;10.746;2023-05-09T15:00:15;4.63;;;1.70;;
8632;SDS011;4354;49.832;10.746;2023-05-09T15:02:48;3.97;;;1.67;;
8632;SDS011;4354;49.832;10.746;2023-05-09T15:05:15;9.40;;;1.90;;
8632;SDS011;4354;49.832;10.746;2023-05-09T15:07:42;2.85;;;1.70;;
8632;SDS011;4354;49.832;10.746;2023-05-09T15:10:09;5.57;;;1.85;;
8632;SDS011;4354;49.832;10.746;2023-05-09T15:12:36;2.20;;;1.70;;
8632;SDS011;4354;49.832;10.746;2023-05-09T15:15:13;4.57;;;2.00;;
8632;SDS011;4354;49.832;10.746;2023-05-09T15:17:43;4.72;;;1.80;;
8632;SDS011;4354;49.832;10.746;2023-05-09T15:20:11;7.15;;;1.40;;
8632;SDS011;4354;49.832;10.746;2023-05-09T15:22:46;3.50;;;1.50;;
8632;SDS011;4354;49.832;10.746;2023-05-09T15:25:15;2.22;;;1.52;;
8632;SDS011;4354;49.832;10.746;2023-05-09T15:27:42;3.80;;;1.67;;
8632;SDS011;4354;49.832;10.746;2023-05-09T15:30:08;3.60;;;1.45;;
8632;SDS011;4354;49.832;10.746;2023-05-09T15:32:36;6.95;;;2.00;;
8632;SDS011;4354;49.832;10.746;2023-05-09T15:35:05;4.53;;;1.52;;
8632;SDS011;4354;49.832;10.746;2023-05-09T15:37:32;1.48;;;1.35;;